<?xml version="1.0" encoding="UTF-8" standalone="no" ?>
<gpx xmlns="http://www.topografix.com/GPX/1/1" xmlns:xsi="http://www.w3.org/2001/XMLSchema-instance" xsi:schemaLocation="http://www.topografix.com/GPX/1/1 http://www.topografix.com/GPX/1/1/gpx.xsd" version="1.1" creator="VisuGPX - https://www.visugpx.com">
  <metadata>
    <name>Suède</name>
  </metadata>
  <trk>
    <name><![CDATA[Tour d'Europe: étape 092]]></name>
    <trkseg>
      <trkpt lat="64.76123" lon="20.97437">
        <ele>71.919678</ele>
        <time>2020-09-28T10:04:03.561Z</time>
      </trkpt>
      <trkpt lat="64.76003" lon="20.97028">
        <ele>62.743485</ele>
        <time>2020-09-28T10:04:41.562Z</time>
      </trkpt>
      <trkpt lat="64.75846" lon="20.96517">
        <ele>55.913457</ele>
        <time>2020-09-28T10:05:33.573Z</time>
      </trkpt>
      <trkpt lat="64.75731" lon="20.96342">
        <ele>55.931252</ele>
        <time>2020-09-28T10:06:34.552Z</time>
      </trkpt>
      <trkpt lat="64.75604" lon="20.96557">
        <ele>57.906542</ele>
        <time>2020-09-28T10:07:39.559Z</time>
      </trkpt>
      <trkpt lat="64.75398" lon="20.96382">
        <ele>53.871998</ele>
        <time>2020-09-28T10:08:26.569Z</time>
      </trkpt>
      <trkpt lat="64.75302" lon="20.96687">
        <ele>51.552985</ele>
        <time>2020-09-28T10:09:40.561Z</time>
      </trkpt>
      <trkpt lat="64.75316" lon="20.96519">
        <ele>50.366354</ele>
        <time>2020-09-28T10:11:37.566Z</time>
      </trkpt>
      <trkpt lat="64.75369" lon="20.96037">
        <ele>46.252003</ele>
        <time>2020-09-28T10:12:32.601Z</time>
      </trkpt>
      <trkpt lat="64.75185" lon="20.96093">
        <ele>41.853565</ele>
        <time>2020-09-28T10:13:13.546Z</time>
      </trkpt>
      <trkpt lat="64.74958" lon="20.96015">
        <ele>41.865139</ele>
        <time>2020-09-28T10:13:59.570Z</time>
      </trkpt>
      <trkpt lat="64.7474" lon="20.95972">
        <ele>40.168411</ele>
        <time>2020-09-28T10:14:56.571Z</time>
      </trkpt>
      <trkpt lat="64.74519" lon="20.95921">
        <ele>37.432247</ele>
        <time>2020-09-28T10:15:46.598Z</time>
      </trkpt>
      <trkpt lat="64.7431" lon="20.95988">
        <ele>40.59947</ele>
        <time>2020-09-28T10:16:35.562Z</time>
      </trkpt>
      <trkpt lat="64.74101" lon="20.96156">
        <ele>38.64042</ele>
        <time>2020-09-28T10:17:32.600Z</time>
      </trkpt>
      <trkpt lat="64.73873" lon="20.96092">
        <ele>41.610529</ele>
        <time>2020-09-28T10:18:35.563Z</time>
      </trkpt>
      <trkpt lat="64.73672" lon="20.95915">
        <ele>45.784488</ele>
        <time>2020-09-28T10:19:33.558Z</time>
      </trkpt>
      <trkpt lat="64.73475" lon="20.95669">
        <ele>51.606278</ele>
        <time>2020-09-28T10:20:42.608Z</time>
      </trkpt>
      <trkpt lat="64.73285" lon="20.95504">
        <ele>51.499628</ele>
        <time>2020-09-28T10:21:40.545Z</time>
      </trkpt>
      <trkpt lat="64.73111" lon="20.95224">
        <ele>62.569791</ele>
        <time>2020-09-28T10:23:02.579Z</time>
      </trkpt>
      <trkpt lat="64.72922" lon="20.95083">
        <ele>77.594651</ele>
        <time>2020-09-28T10:24:44.565Z</time>
      </trkpt>
      <trkpt lat="64.72714" lon="20.95023">
        <ele>78.378781</ele>
        <time>2020-09-28T10:26:10.560Z</time>
      </trkpt>
      <trkpt lat="64.72499" lon="20.94968">
        <ele>80.192982</ele>
        <time>2020-09-28T10:27:21.562Z</time>
      </trkpt>
      <trkpt lat="64.72274" lon="20.94903">
        <ele>78.866541</ele>
        <time>2020-09-28T10:28:15.574Z</time>
      </trkpt>
      <trkpt lat="64.72041" lon="20.94881">
        <ele>83.845073</ele>
        <time>2020-09-28T10:29:15.579Z</time>
      </trkpt>
      <trkpt lat="64.7183" lon="20.9495">
        <ele>92.209098</ele>
        <time>2020-09-28T10:30:25.554Z</time>
      </trkpt>
      <trkpt lat="64.7164" lon="20.95025">
        <ele>93.690093</ele>
        <time>2020-09-28T10:31:25.585Z</time>
      </trkpt>
      <trkpt lat="64.71417" lon="20.95048">
        <ele>95.800364</ele>
        <time>2020-09-28T10:32:25.576Z</time>
      </trkpt>
      <trkpt lat="64.71208" lon="20.94962">
        <ele>95.938038</ele>
        <time>2020-09-28T10:33:08.601Z</time>
      </trkpt>
      <trkpt lat="64.70999" lon="20.94771">
        <ele>96.226032</ele>
        <time>2020-09-28T10:33:50.607Z</time>
      </trkpt>
      <trkpt lat="64.70797" lon="20.94464">
        <ele>101.653475</ele>
        <time>2020-09-28T10:34:48.577Z</time>
      </trkpt>
      <trkpt lat="64.70588" lon="20.94208">
        <ele>101.610781</ele>
        <time>2020-09-28T10:35:44.582Z</time>
      </trkpt>
      <trkpt lat="64.70395" lon="20.94128">
        <ele>98.495099</ele>
        <time>2020-09-28T10:36:24.575Z</time>
      </trkpt>
      <trkpt lat="64.70192" lon="20.94115">
        <ele>99.090172</ele>
        <time>2020-09-28T10:37:07.573Z</time>
      </trkpt>
      <trkpt lat="64.70001" lon="20.9417">
        <ele>99.573644</ele>
        <time>2020-09-28T10:37:47.561Z</time>
      </trkpt>
      <trkpt lat="64.69774" lon="20.94248">
        <ele>102.48428</ele>
        <time>2020-09-28T10:38:44.584Z</time>
      </trkpt>
      <trkpt lat="64.6954" lon="20.94246">
        <ele>106.530641</ele>
        <time>2020-09-28T10:39:44.561Z</time>
      </trkpt>
      <trkpt lat="64.69321" lon="20.94239">
        <ele>104.749494</ele>
        <time>2020-09-28T10:40:29.549Z</time>
      </trkpt>
      <trkpt lat="64.69052" lon="20.9424">
        <ele>98.911971</ele>
        <time>2020-09-28T10:41:09.575Z</time>
      </trkpt>
      <trkpt lat="64.68824" lon="20.94236">
        <ele>97.781218</ele>
        <time>2020-09-28T10:41:49.569Z</time>
      </trkpt>
      <trkpt lat="64.68604" lon="20.94238">
        <ele>101.308447</ele>
        <time>2020-09-28T10:42:37.561Z</time>
      </trkpt>
      <trkpt lat="64.68375" lon="20.94359">
        <ele>99.326388</ele>
        <time>2020-09-28T10:43:28.568Z</time>
      </trkpt>
      <trkpt lat="64.68103" lon="20.94531">
        <ele>90.54583</ele>
        <time>2020-09-28T10:44:08.559Z</time>
      </trkpt>
      <trkpt lat="64.67904" lon="20.94588">
        <ele>83.237784</ele>
        <time>2020-09-28T10:44:29.576Z</time>
      </trkpt>
      <trkpt lat="64.67646" lon="20.94681">
        <ele>75.378061</ele>
        <time>2020-09-28T10:45:01.587Z</time>
      </trkpt>
      <trkpt lat="64.67425" lon="20.94755">
        <ele>77.072681</ele>
        <time>2020-09-28T10:45:41.595Z</time>
      </trkpt>
      <trkpt lat="64.67212" lon="20.94826">
        <ele>79.937953</ele>
        <time>2020-09-28T10:46:21.604Z</time>
      </trkpt>
      <trkpt lat="64.67003" lon="20.94898">
        <ele>80.839228</ele>
        <time>2020-09-28T10:47:07.592Z</time>
      </trkpt>
      <trkpt lat="64.66763" lon="20.94981">
        <ele>85.44267</ele>
        <time>2020-09-28T10:48:10.582Z</time>
      </trkpt>
      <trkpt lat="64.66545" lon="20.9506">
        <ele>83.6938</ele>
        <time>2020-09-28T10:48:58.598Z</time>
      </trkpt>
      <trkpt lat="64.66431" lon="20.95586">
        <ele>76.506274</ele>
        <time>2020-09-28T10:49:38.570Z</time>
      </trkpt>
      <trkpt lat="64.66263" lon="20.95976">
        <ele>71.777909</ele>
        <time>2020-09-28T10:50:18.566Z</time>
      </trkpt>
      <trkpt lat="64.661" lon="20.96353">
        <ele>68.536969</ele>
        <time>2020-09-28T10:51:01.572Z</time>
      </trkpt>
      <trkpt lat="64.6595" lon="20.96823">
        <ele>67.469619</ele>
        <time>2020-09-28T10:51:41.560Z</time>
      </trkpt>
      <trkpt lat="64.65836" lon="20.97234">
        <ele>70.29193</ele>
        <time>2020-09-28T10:52:24.576Z</time>
      </trkpt>
      <trkpt lat="64.65719" lon="20.97642">
        <ele>74.441957</ele>
        <time>2020-09-28T10:53:04.583Z</time>
      </trkpt>
      <trkpt lat="64.6561" lon="20.98066">
        <ele>74.592841</ele>
        <time>2020-09-28T10:53:47.580Z</time>
      </trkpt>
      <trkpt lat="64.65496" lon="20.98478">
        <ele>72.208573</ele>
        <time>2020-09-28T10:54:31.594Z</time>
      </trkpt>
      <trkpt lat="64.65364" lon="20.98841">
        <ele>71.447051</ele>
        <time>2020-09-28T10:55:11.599Z</time>
      </trkpt>
      <trkpt lat="64.65199" lon="20.99117">
        <ele>72.193627</ele>
        <time>2020-09-28T10:55:51.562Z</time>
      </trkpt>
      <trkpt lat="64.65011" lon="20.9934">
        <ele>65.668126</ele>
        <time>2020-09-28T10:56:33.595Z</time>
      </trkpt>
      <trkpt lat="64.64825" lon="20.99551">
        <ele>70.250829</ele>
        <time>2020-09-28T10:57:27.599Z</time>
      </trkpt>
      <trkpt lat="64.6463" lon="20.99776">
        <ele>74.988757</ele>
        <time>2020-09-28T10:58:14.578Z</time>
      </trkpt>
      <trkpt lat="64.6444" lon="20.99994">
        <ele>68.854698</ele>
        <time>2020-09-28T10:58:54.591Z</time>
      </trkpt>
      <trkpt lat="64.64247" lon="21.00217">
        <ele>73.398978</ele>
        <time>2020-09-28T10:59:56.573Z</time>
      </trkpt>
      <trkpt lat="64.64053" lon="21.0044">
        <ele>71.687358</ele>
        <time>2020-09-28T11:00:45.598Z</time>
      </trkpt>
      <trkpt lat="64.6383" lon="21.00691">
        <ele>65.404753</ele>
        <time>2020-09-28T11:01:25.575Z</time>
      </trkpt>
      <trkpt lat="64.6363" lon="21.00927">
        <ele>63.370769</ele>
        <time>2020-09-28T11:02:05.590Z</time>
      </trkpt>
      <trkpt lat="64.63451" lon="21.01252">
        <ele>75.201258</ele>
        <time>2020-09-28T11:03:15.607Z</time>
      </trkpt>
      <trkpt lat="64.6337" lon="21.01746">
        <ele>71.440206</ele>
        <time>2020-09-28T11:04:06.565Z</time>
      </trkpt>
      <trkpt lat="64.63341" lon="21.02315">
        <ele>64.904586</ele>
        <time>2020-09-28T11:04:46.608Z</time>
      </trkpt>
      <trkpt lat="64.63311" lon="21.02823">
        <ele>65.115968</ele>
        <time>2020-09-28T11:05:28.601Z</time>
      </trkpt>
      <trkpt lat="64.63206" lon="21.03233">
        <ele>63.984495</ele>
        <time>2020-09-28T11:06:09.594Z</time>
      </trkpt>
      <trkpt lat="64.63089" lon="21.03587">
        <ele>63.750055</ele>
        <time>2020-09-28T11:06:50.600Z</time>
      </trkpt>
      <trkpt lat="64.62973" lon="21.03951">
        <ele>63.508005</ele>
        <time>2020-09-28T11:07:31.573Z</time>
      </trkpt>
      <trkpt lat="64.62836" lon="21.04374">
        <ele>66.545062</ele>
        <time>2020-09-28T11:08:34.564Z</time>
      </trkpt>
      <trkpt lat="64.62693" lon="21.04808">
        <ele>68.219357</ele>
        <time>2020-09-28T11:09:29.583Z</time>
      </trkpt>
      <trkpt lat="64.6257" lon="21.05189">
        <ele>68.309171</ele>
        <time>2020-09-28T11:10:14.571Z</time>
      </trkpt>
      <trkpt lat="64.62443" lon="21.05581">
        <ele>71.557869</ele>
        <time>2020-09-28T11:11:00.577Z</time>
      </trkpt>
      <trkpt lat="64.62268" lon="21.05912">
        <ele>72.489972</ele>
        <time>2020-09-28T11:11:46.562Z</time>
      </trkpt>
      <trkpt lat="64.62063" lon="21.06246">
        <ele>66.811881</ele>
        <time>2020-09-28T11:12:26.590Z</time>
      </trkpt>
      <trkpt lat="64.61889" lon="21.06531">
        <ele>66.129068</ele>
        <time>2020-09-28T11:13:06.581Z</time>
      </trkpt>
      <trkpt lat="64.61714" lon="21.06824">
        <ele>77.668852</ele>
        <time>2020-09-28T11:14:04.570Z</time>
      </trkpt>
      <trkpt lat="64.61531" lon="21.07131">
        <ele>83.270572</ele>
        <time>2020-09-28T11:15:07.596Z</time>
      </trkpt>
      <trkpt lat="64.61354" lon="21.07407">
        <ele>83.801201</ele>
        <time>2020-09-28T11:16:14.590Z</time>
      </trkpt>
      <trkpt lat="64.61176" lon="21.07689">
        <ele>90.92792</ele>
        <time>2020-09-28T11:17:05.583Z</time>
      </trkpt>
      <trkpt lat="64.60984" lon="21.07964">
        <ele>93.95046</ele>
        <time>2020-09-28T11:17:56.576Z</time>
      </trkpt>
      <trkpt lat="64.60771" lon="21.08175">
        <ele>92.496899</ele>
        <time>2020-09-28T11:18:52.592Z</time>
      </trkpt>
      <trkpt lat="64.60571" lon="21.08366">
        <ele>91.003165</ele>
        <time>2020-09-28T11:19:53.574Z</time>
      </trkpt>
      <trkpt lat="64.6034" lon="21.08535">
        <ele>81.923772</ele>
        <time>2020-09-28T11:20:34.582Z</time>
      </trkpt>
      <trkpt lat="64.60122" lon="21.08682">
        <ele>75.821286</ele>
        <time>2020-09-28T11:21:14.574Z</time>
      </trkpt>
      <trkpt lat="64.59889" lon="21.08843">
        <ele>75.839367</ele>
        <time>2020-09-28T11:22:10.588Z</time>
      </trkpt>
      <trkpt lat="64.59669" lon="21.08996">
        <ele>79.527151</ele>
        <time>2020-09-28T11:23:03.602Z</time>
      </trkpt>
      <trkpt lat="64.59466" lon="21.09124">
        <ele>79.475197</ele>
        <time>2020-09-28T11:23:50.601Z</time>
      </trkpt>
      <trkpt lat="64.59221" lon="21.09247">
        <ele>70.943628</ele>
        <time>2020-09-28T11:24:30.568Z</time>
      </trkpt>
      <trkpt lat="64.5899" lon="21.09364">
        <ele>68.078516</ele>
        <time>2020-09-28T11:25:12.631Z</time>
      </trkpt>
      <trkpt lat="64.58784" lon="21.09467">
        <ele>66.881285</ele>
        <time>2020-09-28T11:25:52.575Z</time>
      </trkpt>
      <trkpt lat="64.58587" lon="21.09566">
        <ele>70.275432</ele>
        <time>2020-09-28T11:26:35.579Z</time>
      </trkpt>
      <trkpt lat="64.58347" lon="21.09688">
        <ele>67.226966</ele>
        <time>2020-09-28T11:27:15.571Z</time>
      </trkpt>
      <trkpt lat="64.58135" lon="21.09798">
        <ele>66.79913</ele>
        <time>2020-09-28T11:28:00.578Z</time>
      </trkpt>
      <trkpt lat="64.57938" lon="21.09896">
        <ele>67.719221</ele>
        <time>2020-09-28T11:28:40.577Z</time>
      </trkpt>
      <trkpt lat="64.5773" lon="21.09997">
        <ele>65.169581</ele>
        <time>2020-09-28T11:29:20.578Z</time>
      </trkpt>
      <trkpt lat="64.57482" lon="21.10105">
        <ele>63.21702</ele>
        <time>2020-09-28T11:30:20.579Z</time>
      </trkpt>
      <trkpt lat="64.57271" lon="21.10188">
        <ele>66.264943</ele>
        <time>2020-09-28T11:31:20.580Z</time>
      </trkpt>
      <trkpt lat="64.57065" lon="21.10278">
        <ele>68.891846</ele>
        <time>2020-09-28T11:32:07.575Z</time>
      </trkpt>
      <trkpt lat="64.56837" lon="21.10371">
        <ele>69.485595</ele>
        <time>2020-09-28T11:33:03.570Z</time>
      </trkpt>
      <trkpt lat="64.56601" lon="21.10399">
        <ele>66.844596</ele>
        <time>2020-09-28T11:33:51.572Z</time>
      </trkpt>
      <trkpt lat="64.56392" lon="21.10395">
        <ele>65.70386</ele>
        <time>2020-09-28T11:34:35.571Z</time>
      </trkpt>
      <trkpt lat="64.56185" lon="21.10387">
        <ele>73.021001</ele>
        <time>2020-09-28T11:35:37.603Z</time>
      </trkpt>
      <trkpt lat="64.55971" lon="21.1036">
        <ele>74.073635</ele>
        <time>2020-09-28T11:36:34.671Z</time>
      </trkpt>
      <trkpt lat="64.55731" lon="21.10319">
        <ele>78.278603</ele>
        <time>2020-09-28T11:37:37.572Z</time>
      </trkpt>
      <trkpt lat="64.55505" lon="21.10285">
        <ele>81.257036</ele>
        <time>2020-09-28T11:38:39.602Z</time>
      </trkpt>
      <trkpt lat="64.55304" lon="21.10254">
        <ele>95.959126</ele>
        <time>2020-09-28T11:40:06.570Z</time>
      </trkpt>
      <trkpt lat="64.55103" lon="21.10221">
        <ele>105.913077</ele>
        <time>2020-09-28T11:41:40.583Z</time>
      </trkpt>
      <trkpt lat="64.54887" lon="21.10184">
        <ele>109.48305</ele>
        <time>2020-09-28T11:43:00.581Z</time>
      </trkpt>
      <trkpt lat="64.54678" lon="21.10113">
        <ele>102.058738</ele>
        <time>2020-09-28T11:43:40.616Z</time>
      </trkpt>
      <trkpt lat="64.54439" lon="21.09826">
        <ele>93.607855</ele>
        <time>2020-09-28T11:44:20.572Z</time>
      </trkpt>
      <trkpt lat="64.54232" lon="21.09568">
        <ele>89.14389</ele>
        <time>2020-09-28T11:45:00.602Z</time>
      </trkpt>
      <trkpt lat="64.53969" lon="21.09374">
        <ele>81.930417</ele>
        <time>2020-09-28T11:45:39.568Z</time>
      </trkpt>
      <trkpt lat="64.5373" lon="21.09213">
        <ele>81.401748</ele>
        <time>2020-09-28T11:46:23.601Z</time>
      </trkpt>
      <trkpt lat="64.53513" lon="21.09065">
        <ele>91.876117</ele>
        <time>2020-09-28T11:47:26.604Z</time>
      </trkpt>
      <trkpt lat="64.5331" lon="21.08919">
        <ele>103.728011</ele>
        <time>2020-09-28T11:48:48.583Z</time>
      </trkpt>
      <trkpt lat="64.53108" lon="21.08787">
        <ele>111.741218</ele>
        <time>2020-09-28T11:50:13.581Z</time>
      </trkpt>
      <trkpt lat="64.52899" lon="21.08586">
        <ele>105.183548</ele>
        <time>2020-09-28T11:51:07.594Z</time>
      </trkpt>
      <trkpt lat="64.527" lon="21.0838">
        <ele>108.563175</ele>
        <time>2020-09-28T11:52:10.580Z</time>
      </trkpt>
      <trkpt lat="64.52517" lon="21.0819">
        <ele>113.276414</ele>
        <time>2020-09-28T11:53:21.579Z</time>
      </trkpt>
      <trkpt lat="64.52325" lon="21.07983">
        <ele>114.301343</ele>
        <time>2020-09-28T11:54:34.613Z</time>
      </trkpt>
      <trkpt lat="64.5212" lon="21.07624">
        <ele>107.635417</ele>
        <time>2020-09-28T11:55:14.608Z</time>
      </trkpt>
      <trkpt lat="64.51941" lon="21.07305">
        <ele>101.457354</ele>
        <time>2020-09-28T11:55:56.590Z</time>
      </trkpt>
      <trkpt lat="64.51761" lon="21.0699">
        <ele>101.88067</ele>
        <time>2020-09-28T11:56:47.592Z</time>
      </trkpt>
      <trkpt lat="64.51589" lon="21.0668">
        <ele>103.238048</ele>
        <time>2020-09-28T11:57:37.582Z</time>
      </trkpt>
      <trkpt lat="64.51414" lon="21.06399">
        <ele>109.297948</ele>
        <time>2020-09-28T11:58:41.595Z</time>
      </trkpt>
      <trkpt lat="64.51216" lon="21.06226">
        <ele>107.853592</ele>
        <time>2020-09-28T11:59:44.590Z</time>
      </trkpt>
      <trkpt lat="64.5096" lon="21.06013">
        <ele>101.094055</ele>
        <time>2020-09-28T12:00:29.615Z</time>
      </trkpt>
      <trkpt lat="64.50765" lon="21.05874">
        <ele>111.576889</ele>
        <time>2020-09-28T12:01:53.583Z</time>
      </trkpt>
      <trkpt lat="64.50566" lon="21.05758">
        <ele>115.835774</ele>
        <time>2020-09-28T12:03:02.675Z</time>
      </trkpt>
      <trkpt lat="64.50353" lon="21.05645">
        <ele>118.969811</ele>
        <time>2020-09-28T12:03:48.603Z</time>
      </trkpt>
      <trkpt lat="64.50131" lon="21.05518">
        <ele>113.738817</ele>
        <time>2020-09-28T12:04:30.610Z</time>
      </trkpt>
      <trkpt lat="64.49924" lon="21.05404">
        <ele>115.668434</ele>
        <time>2020-09-28T12:05:12.614Z</time>
      </trkpt>
      <trkpt lat="64.49685" lon="21.05267">
        <ele>112.788712</ele>
        <time>2020-09-28T12:05:53.593Z</time>
      </trkpt>
      <trkpt lat="64.49468" lon="21.05145">
        <ele>109.815221</ele>
        <time>2020-09-28T12:06:34.609Z</time>
      </trkpt>
      <trkpt lat="64.49231" lon="21.05014">
        <ele>114.371265</ele>
        <time>2020-09-28T12:07:34.580Z</time>
      </trkpt>
      <trkpt lat="64.48984" lon="21.04874">
        <ele>109.749605</ele>
        <time>2020-09-28T12:08:17.592Z</time>
      </trkpt>
      <trkpt lat="64.48784" lon="21.04613">
        <ele>99.278062</ele>
        <time>2020-09-28T12:08:54.584Z</time>
      </trkpt>
      <trkpt lat="64.4855" lon="21.04453">
        <ele>90.553948</ele>
        <time>2020-09-28T12:09:22.587Z</time>
      </trkpt>
      <trkpt lat="64.483" lon="21.0431">
        <ele>92.375098</ele>
        <time>2020-09-28T12:10:09.589Z</time>
      </trkpt>
      <trkpt lat="64.48115" lon="21.04465">
        <ele>92.189763</ele>
        <time>2020-09-28T12:11:01.614Z</time>
      </trkpt>
      <trkpt lat="64.47956" lon="21.04761">
        <ele>86.021985</ele>
        <time>2020-09-28T12:11:43.603Z</time>
      </trkpt>
      <trkpt lat="64.47766" lon="21.04521">
        <ele>78.056392</ele>
        <time>2020-09-28T12:12:28.581Z</time>
      </trkpt>
      <trkpt lat="64.47572" lon="21.04118">
        <ele>73.729784</ele>
        <time>2020-09-28T12:13:10.579Z</time>
      </trkpt>
      <trkpt lat="64.47413" lon="21.03791">
        <ele>74.460587</ele>
        <time>2020-09-28T12:14:00.587Z</time>
      </trkpt>
      <trkpt lat="64.47296" lon="21.03558">
        <ele>73.247453</ele>
        <time>2020-09-28T12:36:58.219Z</time>
      </trkpt>
      <trkpt lat="64.47136" lon="21.03242">
        <ele>77.773153</ele>
        <time>2020-09-28T12:38:03.191Z</time>
      </trkpt>
      <trkpt lat="64.46963" lon="21.03454">
        <ele>88.547559</ele>
        <time>2020-09-28T12:39:32.212Z</time>
      </trkpt>
      <trkpt lat="64.4674" lon="21.03636">
        <ele>80.198157</ele>
        <time>2020-09-28T12:40:23.206Z</time>
      </trkpt>
      <trkpt lat="64.46545" lon="21.03763">
        <ele>96.813278</ele>
        <time>2020-09-28T12:41:42.217Z</time>
      </trkpt>
      <trkpt lat="64.4637" lon="21.04033">
        <ele>105.06325</ele>
        <time>2020-09-28T12:42:55.197Z</time>
      </trkpt>
      <trkpt lat="64.46182" lon="21.03922">
        <ele>90.60776</ele>
        <time>2020-09-28T12:43:44.237Z</time>
      </trkpt>
      <trkpt lat="64.46003" lon="21.03617">
        <ele>80.412923</ele>
        <time>2020-09-28T12:44:27.210Z</time>
      </trkpt>
      <trkpt lat="64.45807" lon="21.03237">
        <ele>75.298952</ele>
        <time>2020-09-28T12:45:13.205Z</time>
      </trkpt>
      <trkpt lat="64.45603" lon="21.02979">
        <ele>90.126679</ele>
        <time>2020-09-28T12:46:15.221Z</time>
      </trkpt>
      <trkpt lat="64.45407" lon="21.02822">
        <ele>95.478589</ele>
        <time>2020-09-28T12:46:59.206Z</time>
      </trkpt>
      <trkpt lat="64.4519" lon="21.02655">
        <ele>88.906937</ele>
        <time>2020-09-28T12:47:41.217Z</time>
      </trkpt>
      <trkpt lat="64.4496" lon="21.02465">
        <ele>76.756365</ele>
        <time>2020-09-28T12:48:21.210Z</time>
      </trkpt>
      <trkpt lat="64.44712" lon="21.02266">
        <ele>72.736709</ele>
        <time>2020-09-28T12:49:03.217Z</time>
      </trkpt>
      <trkpt lat="64.44513" lon="21.0211">
        <ele>77.677645</ele>
        <time>2020-09-28T12:49:49.213Z</time>
      </trkpt>
      <trkpt lat="64.44329" lon="21.01958">
        <ele>85.595898</ele>
        <time>2020-09-28T12:51:43.247Z</time>
      </trkpt>
      <trkpt lat="64.44116" lon="21.01792">
        <ele>89.569761</ele>
        <time>2020-09-28T12:52:44.217Z</time>
      </trkpt>
      <trkpt lat="64.43876" lon="21.01672">
        <ele>100.381538</ele>
        <time>2020-09-28T12:53:40.199Z</time>
      </trkpt>
      <trkpt lat="64.43655" lon="21.0161">
        <ele>101.231852</ele>
        <time>2020-09-28T12:54:24.212Z</time>
      </trkpt>
      <trkpt lat="64.43439" lon="21.01555">
        <ele>93.173694</ele>
        <time>2020-09-28T12:55:05.245Z</time>
      </trkpt>
      <trkpt lat="64.43211" lon="21.01486">
        <ele>96.790438</ele>
        <time>2020-09-28T12:55:49.222Z</time>
      </trkpt>
      <trkpt lat="64.42969" lon="21.01421">
        <ele>97.660187</ele>
        <time>2020-09-28T12:56:51.220Z</time>
      </trkpt>
      <trkpt lat="64.42746" lon="21.01356">
        <ele>85.920214</ele>
        <time>2020-09-28T12:57:51.236Z</time>
      </trkpt>
      <trkpt lat="64.42547" lon="21.0127">
        <ele>91.255108</ele>
        <time>2020-09-28T12:58:56.229Z</time>
      </trkpt>
      <trkpt lat="64.4235" lon="21.01138">
        <ele>104.917567</ele>
        <time>2020-09-28T12:59:53.209Z</time>
      </trkpt>
      <trkpt lat="64.4207" lon="21.00935">
        <ele>92.608453</ele>
        <time>2020-09-28T13:00:46.232Z</time>
      </trkpt>
      <trkpt lat="64.4186" lon="21.00747">
        <ele>77.611401</ele>
        <time>2020-09-28T13:01:34.233Z</time>
      </trkpt>
      <trkpt lat="64.4166" lon="21.00531">
        <ele>75.915725</ele>
        <time>2020-09-28T13:02:34.206Z</time>
      </trkpt>
      <trkpt lat="64.41425" lon="21.00286">
        <ele>70.621923</ele>
        <time>2020-09-28T13:03:14.228Z</time>
      </trkpt>
      <trkpt lat="64.41198" lon="21.00076">
        <ele>68.152492</ele>
        <time>2020-09-28T13:04:11.212Z</time>
      </trkpt>
      <trkpt lat="64.40984" lon="21.00296">
        <ele>71.887164</ele>
        <time>2020-09-28T13:05:06.218Z</time>
      </trkpt>
      <trkpt lat="64.40782" lon="21.00435">
        <ele>84.827895</ele>
        <time>2020-09-28T13:06:19.197Z</time>
      </trkpt>
      <trkpt lat="64.4057" lon="21.00542">
        <ele>82.516401</ele>
        <time>2020-09-28T13:07:13.223Z</time>
      </trkpt>
      <trkpt lat="64.40353" lon="21.00805">
        <ele>76.499808</ele>
        <time>2020-09-28T13:07:55.246Z</time>
      </trkpt>
      <trkpt lat="64.40147" lon="21.00675">
        <ele>68.769562</ele>
        <time>2020-09-28T13:08:38.211Z</time>
      </trkpt>
      <trkpt lat="64.39977" lon="21.00346">
        <ele>64.854742</ele>
        <time>2020-09-28T13:09:20.251Z</time>
      </trkpt>
      <trkpt lat="64.39735" lon="21.003">
        <ele>67.135372</ele>
        <time>2020-09-28T13:10:14.233Z</time>
      </trkpt>
      <trkpt lat="64.39535" lon="21.00168">
        <ele>76.42396</ele>
        <time>2020-09-28T13:11:18.219Z</time>
      </trkpt>
      <trkpt lat="64.39336" lon="21.00164">
        <ele>80.240369</ele>
        <time>2020-09-28T13:12:29.211Z</time>
      </trkpt>
      <trkpt lat="64.39134" lon="21.00176">
        <ele>94.378001</ele>
        <time>2020-09-28T13:13:53.240Z</time>
      </trkpt>
      <trkpt lat="64.38912" lon="21.0012">
        <ele>95.080442</ele>
        <time>2020-09-28T13:14:54.216Z</time>
      </trkpt>
      <trkpt lat="64.38757" lon="21.00426">
        <ele>87.587923</ele>
        <time>2020-09-28T13:15:36.224Z</time>
      </trkpt>
      <trkpt lat="64.38592" lon="21.00688">
        <ele>84.448477</ele>
        <time>2020-09-28T13:16:18.213Z</time>
      </trkpt>
      <trkpt lat="64.38421" lon="21.00678">
        <ele>85.849333</ele>
        <time>2020-09-28T13:17:02.244Z</time>
      </trkpt>
      <trkpt lat="64.3826" lon="21.00321">
        <ele>85.307521</ele>
        <time>2020-09-28T13:17:57.231Z</time>
      </trkpt>
      <trkpt lat="64.3805" lon="21.00088">
        <ele>86.21762</ele>
        <time>2020-09-28T13:18:44.215Z</time>
      </trkpt>
      <trkpt lat="64.37884" lon="20.99759">
        <ele>87.822924</ele>
        <time>2020-09-28T13:19:44.216Z</time>
      </trkpt>
      <trkpt lat="64.37667" lon="20.99752">
        <ele>85.057995</ele>
        <time>2020-09-28T13:20:31.223Z</time>
      </trkpt>
      <trkpt lat="64.37441" lon="20.99749">
        <ele>84.040369</ele>
        <time>2020-09-28T13:21:37.210Z</time>
      </trkpt>
      <trkpt lat="64.37279" lon="20.99412">
        <ele>84.24133</ele>
        <time>2020-09-28T13:22:58.213Z</time>
      </trkpt>
      <trkpt lat="64.37101" lon="20.99243">
        <ele>91.934413</ele>
        <time>2020-09-28T13:24:10.208Z</time>
      </trkpt>
      <trkpt lat="64.36968" lon="20.98884">
        <ele>93.330457</ele>
        <time>2020-09-28T13:25:21.201Z</time>
      </trkpt>
      <trkpt lat="64.36812" lon="20.98433">
        <ele>87.341121</ele>
        <time>2020-09-28T13:26:06.224Z</time>
      </trkpt>
      <trkpt lat="64.36647" lon="20.98244">
        <ele>96.116102</ele>
        <time>2020-09-28T13:27:19.242Z</time>
      </trkpt>
      <trkpt lat="64.36447" lon="20.98087">
        <ele>96.295783</ele>
        <time>2020-09-28T13:28:13.212Z</time>
      </trkpt>
      <trkpt lat="64.36271" lon="20.9792">
        <ele>101.197283</ele>
        <time>2020-09-28T13:29:55.231Z</time>
      </trkpt>
      <trkpt lat="64.36072" lon="20.9777">
        <ele>109.944288</ele>
        <time>2020-09-28T13:31:32.225Z</time>
      </trkpt>
      <trkpt lat="64.35872" lon="20.97596">
        <ele>112.893304</ele>
        <time>2020-09-28T13:32:44.224Z</time>
      </trkpt>
      <trkpt lat="64.35677" lon="20.97752">
        <ele>110.555148</ele>
        <time>2020-09-28T13:33:24.220Z</time>
      </trkpt>
      <trkpt lat="64.35455" lon="20.97727">
        <ele>108.552161</ele>
        <time>2020-09-28T13:34:04.265Z</time>
      </trkpt>
      <trkpt lat="64.35239" lon="20.97649">
        <ele>102.705652</ele>
        <time>2020-09-28T13:34:46.247Z</time>
      </trkpt>
      <trkpt lat="64.34987" lon="20.97825">
        <ele>96.825625</ele>
        <time>2020-09-28T13:35:26.229Z</time>
      </trkpt>
      <trkpt lat="64.34782" lon="20.98084">
        <ele>88.488425</ele>
        <time>2020-09-28T13:36:06.206Z</time>
      </trkpt>
      <trkpt lat="64.34564" lon="20.98378">
        <ele>75.034776</ele>
        <time>2020-09-28T13:36:35.235Z</time>
      </trkpt>
      <trkpt lat="64.34459" lon="20.98784">
        <ele>62.692517</ele>
        <time>2020-09-28T13:36:55.221Z</time>
      </trkpt>
      <trkpt lat="64.3437" lon="20.99255">
        <ele>60.386489</ele>
        <time>2020-09-28T13:37:23.220Z</time>
      </trkpt>
      <trkpt lat="64.34276" lon="20.99727">
        <ele>69.286555</ele>
        <time>2020-09-28T13:38:17.245Z</time>
      </trkpt>
      <trkpt lat="64.34114" lon="21.00184">
        <ele>64.667833</ele>
        <time>2020-09-28T13:38:59.245Z</time>
      </trkpt>
      <trkpt lat="64.33922" lon="21.00642">
        <ele>52.714786</ele>
        <time>2020-09-28T13:39:39.238Z</time>
      </trkpt>
      <trkpt lat="64.3368" lon="21.00872">
        <ele>44.400006</ele>
        <time>2020-09-28T13:40:19.210Z</time>
      </trkpt>
      <trkpt lat="64.33462" lon="21.0088">
        <ele>48.875357</ele>
        <time>2020-09-28T13:41:18.242Z</time>
      </trkpt>
      <trkpt lat="64.33184" lon="21.00901">
        <ele>45.430884</ele>
        <time>2020-09-28T13:42:06.241Z</time>
      </trkpt>
      <trkpt lat="64.32959" lon="21.01092">
        <ele>42.039552</ele>
        <time>2020-09-28T13:42:46.225Z</time>
      </trkpt>
      <trkpt lat="64.32775" lon="21.01364">
        <ele>43.148697</ele>
        <time>2020-09-28T13:43:26.238Z</time>
      </trkpt>
      <trkpt lat="64.32601" lon="21.01627">
        <ele>44.244196</ele>
        <time>2020-09-28T13:44:10.250Z</time>
      </trkpt>
      <trkpt lat="64.32421" lon="21.01892">
        <ele>47.762924</ele>
        <time>2020-09-28T13:45:14.224Z</time>
      </trkpt>
      <trkpt lat="64.32228" lon="21.02067">
        <ele>50.234419</ele>
        <time>2020-09-28T13:46:14.226Z</time>
      </trkpt>
      <trkpt lat="64.32018" lon="21.02241">
        <ele>48.899429</ele>
        <time>2020-09-28T13:47:03.238Z</time>
      </trkpt>
      <trkpt lat="64.31794" lon="21.02331">
        <ele>43.834786</ele>
        <time>2020-09-28T13:47:43.226Z</time>
      </trkpt>
      <trkpt lat="64.31574" lon="21.02402">
        <ele>46.131661</ele>
        <time>2020-09-28T13:48:29.211Z</time>
      </trkpt>
      <trkpt lat="64.31357" lon="21.0247">
        <ele>49.470559</ele>
        <time>2020-09-28T13:49:24.220Z</time>
      </trkpt>
      <trkpt lat="64.31143" lon="21.02537">
        <ele>44.822158</ele>
        <time>2020-09-28T13:50:04.233Z</time>
      </trkpt>
      <trkpt lat="64.30928" lon="21.02606">
        <ele>42.784481</ele>
        <time>2020-09-28T13:50:44.238Z</time>
      </trkpt>
      <trkpt lat="64.30698" lon="21.02674">
        <ele>42.147528</ele>
        <time>2020-09-28T13:51:26.221Z</time>
      </trkpt>
      <trkpt lat="64.30483" lon="21.02748">
        <ele>41.870596</ele>
        <time>2020-09-28T13:52:06.228Z</time>
      </trkpt>
      <trkpt lat="64.30274" lon="21.02812">
        <ele>38.716245</ele>
        <time>2020-09-28T13:52:46.233Z</time>
      </trkpt>
      <trkpt lat="64.30048" lon="21.02931">
        <ele>37.797607</ele>
        <time>2020-09-28T13:53:26.243Z</time>
      </trkpt>
      <trkpt lat="64.29831" lon="21.03118">
        <ele>38.167989</ele>
        <time>2020-09-28T13:54:08.245Z</time>
      </trkpt>
      <trkpt lat="64.29631" lon="21.03193">
        <ele>37.624656</ele>
        <time>2020-09-28T13:54:52.237Z</time>
      </trkpt>
      <trkpt lat="64.29439" lon="21.03227">
        <ele>38.828166</ele>
        <time>2020-09-28T13:55:33.244Z</time>
      </trkpt>
      <trkpt lat="64.29216" lon="21.03268">
        <ele>40.459154</ele>
        <time>2020-09-28T13:56:22.240Z</time>
      </trkpt>
      <trkpt lat="64.28986" lon="21.0331">
        <ele>47.890978</ele>
        <time>2020-09-28T13:57:20.241Z</time>
      </trkpt>
      <trkpt lat="64.28769" lon="21.03373">
        <ele>44.719552</ele>
        <time>2020-09-28T13:58:15.268Z</time>
      </trkpt>
      <trkpt lat="64.28564" lon="21.03505">
        <ele>43.434098</ele>
        <time>2020-09-28T13:58:57.238Z</time>
      </trkpt>
      <trkpt lat="64.28353" lon="21.03646">
        <ele>46.318411</ele>
        <time>2020-09-28T13:59:54.233Z</time>
      </trkpt>
      <trkpt lat="64.28199" lon="21.03941">
        <ele>45.62352</ele>
        <time>2020-09-28T14:00:35.227Z</time>
      </trkpt>
      <trkpt lat="64.28017" lon="21.04131">
        <ele>42.923768</ele>
        <time>2020-09-28T14:01:15.246Z</time>
      </trkpt>
      <trkpt lat="64.27836" lon="21.03992">
        <ele>39.187328</ele>
        <time>2020-09-28T14:01:58.222Z</time>
      </trkpt>
      <trkpt lat="64.27653" lon="21.04288">
        <ele>42.475007</ele>
        <time>2020-09-28T14:02:47.279Z</time>
      </trkpt>
      <trkpt lat="64.2746" lon="21.04562">
        <ele>40.538255</ele>
        <time>2020-09-28T14:03:43.233Z</time>
      </trkpt>
      <trkpt lat="64.27276" lon="21.04755">
        <ele>36.974276</ele>
        <time>2020-09-28T14:04:23.218Z</time>
      </trkpt>
      <trkpt lat="64.27101" lon="21.0474">
        <ele>37.341411</ele>
        <time>2020-09-28T14:05:03.233Z</time>
      </trkpt>
      <trkpt lat="64.26897" lon="21.04647">
        <ele>39.650827</ele>
        <time>2020-09-28T14:05:47.244Z</time>
      </trkpt>
      <trkpt lat="64.2685" lon="21.04175">
        <ele>41.340362</ele>
        <time>2020-09-28T14:07:02.217Z</time>
      </trkpt>
    </trkseg>
  </trk>
</gpx>